UPSVAC Airport Information Service

Miami International Airport (900-999)

ICAO: KMIA Country: United States
Latitude: 25.7932 Longitude: -80.2905
Latest Arrival : UPS3193 (KPHL-KMIA) Latest Departure : UPS372 (KMIA-MPTO)


WX CaptureLIVE
Data provided by noaa.gov | Fetched at 22:03:02

METAR : KMIA 112053Z 11011KT 10SM FEW035 FEW100 BKN250 31/22 A3001 RMK AO2 SLP163 T03060217 56017 $

TAF : KMIA 112117Z 1121/1224 11010KT P6SM FEW035 FEW100 FM121200 VRB03KT P6SM FEW015 SCT200 FM121700 14008KT P6SM FEW035 SCT140 FM122200 13008KT P6SM FEW035 SCT200


Runway Data for KMIA
Data provided by openaviationdata.com

Runway ID Mag Var Hdg Length Elevation Surface ILS Freq ILS Id ILS Slope
08L -5 92° 8595 ft 8 ft Concrete 109.3 IROY 0
08R -5 92° 10498 ft 8 ft Asphalt 110.3 IMFA 3
9 -5 92° 12994 ft 8 ft Concrete 110.9 IBUL 3
12 -5 124° 9357 ft 8 ft Concrete 108.9 IGEM 3
26L -5 272° 10498 ft 8 ft Asphalt 109.1 IVIN 3
26R -5 272° 8595 ft 8 ft Concrete 109.3 ICNV 0
27 -5 272° 12994 ft 8 ft Concrete 109.5 IMIA 3
30 -5 304° 9357 ft 8 ft Concrete 111.7 IDCX 3

Miami International Airport (900-999), United States
Use only for reference purposes



Not for navigational purposes.